Time;durP1;ratioP1;P1;durP2;ratioP2;P2;SDS_P1;SDS_P2;PMS_P1;PMS_P2;Temp;Humidity;BMP_temperature;BMP_pressure;BME280_temperature;BME280_humidity;BME280_pressure;Samples;Min_cycle;Max_cycle;Signal;HPM_P1;HPM_P2
2024/01/24 00:02:20;;;;;;;34.40;26.38;;;;;;;;;;10067509;28;20049;-73
2024/01/24 00:07:12;;;;;;;31.65;25.52;;;;;;;;;;10067106;28;20054;-73
2024/01/24 00:12:04;;;;;;;28.80;24.17;;;;;;;;;;10066678;28;20111;-72
2024/01/24 00:16:56;;;;;;;29.45;22.70;;;;;;;;;;10066203;28;20107;-73
2024/01/24 00:21:48;;;;;;;31.35;26.23;;;;;;;;;;10063476;28;20134;-73
2024/01/24 00:26:40;;;;;;;29.77;25.40;;;;;;;;;;10063328;28;20038;-72
2024/01/24 00:31:32;;;;;;;29.65;24.02;;;;;;;;;;10063710;28;20152;-72
2024/01/24 00:36:24;;;;;;;33.92;23.17;;;;;;;;;;10063301;28;20345;-73
2024/01/24 00:41:16;;;;;;;29.67;23.73;;;;;;;;;;10061944;28;20041;-72
2024/01/24 00:46:07;;;;;;;32.08;22.58;;;;;;;;;;10062846;28;20033;-72
2024/01/24 00:50:59;;;;;;;29.73;22.75;;;;;;;;;;10062932;28;20497;-73
2024/01/24 00:55:51;;;;;;;31.17;24.40;;;;;;;;;;10061896;28;20053;-72
2024/01/24 01:00:44;;;;;;;27.92;23.90;;;;;;;;;;10062442;28;20133;-72
2024/01/24 01:05:36;;;;;;;29.55;22.38;;;;;;;;;;10062289;28;20103;-72
2024/01/24 01:10:28;;;;;;;26.90;22.15;;;;;;;;;;10062318;28;20449;-73
2024/01/24 01:15:20;;;;;;;28.85;24.25;;;;;;;;;;10061746;28;20358;-72
2024/01/24 01:20:14;;;;;;;35.22;26.27;;;;;;;;;;10061963;28;20383;-72
2024/01/24 01:25:06;;;;;;;31.45;25.05;;;;;;;;;;10061880;28;20369;-72
2024/01/24 01:29:58;;;;;;;27.05;23.67;;;;;;;;;;10061653;28;20058;-72
2024/01/24 01:34:50;;;;;;;31.60;26.92;;;;;;;;;;10061361;28;20115;-72
2024/01/24 01:39:42;;;;;;;31.67;24.83;;;;;;;;;;10061307;28;20128;-72
2024/01/24 01:44:37;;;;;;;33.72;29.02;;;;;;;;;;10061117;28;20045;-72
2024/01/24 01:49:28;;;;;;;36.72;28.23;;;;;;;;;;10061477;28;20060;-72
2024/01/24 01:54:21;;;;;;;39.55;31.35;;;;;;;;;;10060945;28;20041;-72
2024/01/24 01:59:13;;;;;;;34.85;27.10;;;;;;;;;;10060840;28;20403;-72
2024/01/24 02:04:05;;;;;;;31.17;27.15;;;;;;;;;;10061200;28;20045;-72
2024/01/24 02:08:57;;;;;;;34.33;27.73;;;;;;;;;;10060791;28;20049;-72
2024/01/24 02:13:54;;;;;;;33.30;28.48;;;;;;;;;;10061325;28;20128;-72
2024/01/24 02:18:46;;;;;;;39.28;32.35;;;;;;;;;;10046946;28;20069;-72
2024/01/24 02:23:39;;;;;;;36.58;29.30;;;;;;;;;;10060677;28;20523;-73
2024/01/24 02:28:31;;;;;;;39.80;33.45;;;;;;;;;;10059267;28;20052;-72
2024/01/24 02:33:23;;;;;;;37.75;29.50;;;;;;;;;;10060600;28;20111;-72
2024/01/24 02:38:15;;;;;;;35.97;31.15;;;;;;;;;;10063244;28;20048;-72
2024/01/24 02:43:06;;;;;;;33.67;28.42;;;;;;;;;;10067617;28;20046;-72
2024/01/24 02:47:58;;;;;;;40.55;32.47;;;;;;;;;;10067311;28;20049;-72
2024/01/24 02:52:51;;;;;;;39.05;32.60;;;;;;;;;;10066937;28;20049;-72
2024/01/24 02:57:43;;;;;;;32.85;27.63;;;;;;;;;;10067050;28;20037;-72
2024/01/24 03:02:35;;;;;;;33.72;28.50;;;;;;;;;;10065324;28;20053;-72
2024/01/24 03:07:27;;;;;;;37.45;30.95;;;;;;;;;;10066471;28;20056;-72
2024/01/24 03:12:19;;;;;;;37.35;30.63;;;;;;;;;;10065930;28;20076;-72
2024/01/24 03:17:11;;;;;;;39.00;32.70;;;;;;;;;;10066319;28;20103;-72
2024/01/24 03:22:03;;;;;;;34.22;27.50;;;;;;;;;;10064937;28;20440;-72
2024/01/24 03:26:55;;;;;;;36.55;30.65;;;;;;;;;;10065407;28;20085;-72
2024/01/24 03:31:47;;;;;;;36.80;28.73;;;;;;;;;;10065568;28;20232;-72
2024/01/24 03:36:39;;;;;;;35.45;27.10;;;;;;;;;;10065376;28;20046;-72
2024/01/24 03:41:31;;;;;;;32.35;27.27;;;;;;;;;;10064819;28;20091;-72
2024/01/24 03:46:23;;;;;;;35.63;26.05;;;;;;;;;;10063800;28;20091;-72
2024/01/24 03:51:15;;;;;;;27.35;22.58;;;;;;;;;;10064756;28;20145;-72
2024/01/24 03:56:07;;;;;;;22.75;18.05;;;;;;;;;;10064298;28;20037;-72
2024/01/24 04:00:59;;;;;;;24.45;19.23;;;;;;;;;;10064915;28;20125;-72
2024/01/24 04:05:51;;;;;;;27.90;22.25;;;;;;;;;;10064234;28;20045;-72
2024/01/24 04:10:43;;;;;;;25.67;18.17;;;;;;;;;;10064095;28;20093;-72
2024/01/24 04:15:35;;;;;;;25.25;21.38;;;;;;;;;;10055151;28;20151;-72
2024/01/24 04:20:28;;;;;;;25.67;20.80;;;;;;;;;;10063686;28;20129;-72
2024/01/24 04:25:20;;;;;;;22.50;17.38;;;;;;;;;;10062012;28;20103;-72
2024/01/24 04:30:12;;;;;;;24.48;19.80;;;;;;;;;;10062870;28;20053;-72
2024/01/24 04:35:05;;;;;;;23.63;19.83;;;;;;;;;;10054317;28;20389;-72
2024/01/24 04:39:57;;;;;;;25.55;22.70;;;;;;;;;;10063006;28;20045;-72
2024/01/24 04:44:49;;;;;;;26.95;23.38;;;;;;;;;;10062541;28;20055;-71
2024/01/24 04:49:42;;;;;;;28.08;22.67;;;;;;;;;;10063017;28;20038;-71
2024/01/24 04:54:36;;;;;;;21.75;17.90;;;;;;;;;;10053649;28;20160;-72
2024/01/24 04:59:29;;;;;;;29.10;25.45;;;;;;;;;;10061944;28;20041;-71
2024/01/24 05:04:23;;;;;;;32.47;26.35;;;;;;;;;;10053891;28;20052;-71
2024/01/24 05:09:15;;;;;;;28.65;23.73;;;;;;;;;;10062236;28;20065;-74
2024/01/24 05:14:07;;;;;;;27.00;21.15;;;;;;;;;;10061775;28;20060;-74
2024/01/24 05:18:59;;;;;;;26.42;20.83;;;;;;;;;;10061110;28;20103;-74
2024/01/24 05:23:52;;;;;;;26.38;19.88;;;;;;;;;;10060459;28;20092;-73
2024/01/24 05:28:44;;;;;;;30.73;21.77;;;;;;;;;;10061388;28;20091;-71
2024/01/24 05:33:36;;;;;;;29.55;23.10;;;;;;;;;;10061705;28;20049;-73
2024/01/24 05:38:29;;;;;;;73.75;49.47;;;;;;;;;;10065061;28;20045;-74
2024/01/24 05:43:21;;;;;;;32.00;26.40;;;;;;;;;;10061720;28;20121;-71
2024/01/24 05:48:14;;;;;;;34.53;28.77;;;;;;;;;;10060951;28;20468;-73
2024/01/24 05:53:06;;;;;;;40.00;35.60;;;;;;;;;;10061293;28;20495;-73
2024/01/24 05:57:57;;;;;;;44.65;39.80;;;;;;;;;;10062001;28;20166;-74
2024/01/24 06:02:50;;;;;;;37.20;28.75;;;;;;;;;;10060259;28;20077;-74
2024/01/24 06:07:42;;;;;;;35.92;30.13;;;;;;;;;;10060803;28;20460;-73
2024/01/24 06:12:34;;;;;;;45.85;36.90;;;;;;;;;;10047445;28;20059;-73
2024/01/24 06:17:26;;;;;;;25.42;22.08;;;;;;;;;;10062241;28;20053;-74
2024/01/24 06:22:18;;;;;;;149.18;110.47;;;;;;;;;;10069977;28;20049;-74
2024/01/24 06:27:11;;;;;;;38.38;28.77;;;;;;;;;;10070462;28;20092;-73
2024/01/24 06:32:03;;;;;;;38.83;29.95;;;;;;;;;;10070771;28;20459;-74
2024/01/24 06:36:55;;;;;;;34.03;28.30;;;;;;;;;;10070761;28;20388;-74
2024/01/24 06:41:47;;;;;;;34.03;21.48;;;;;;;;;;10068452;28;20392;-73
2024/01/24 06:46:43;;;;;;;46.88;33.63;;;;;;;;;;10062750;28;20042;-74
2024/01/24 06:51:34;;;;;;;42.00;30.33;;;;;;;;;;10063431;28;20479;-74
2024/01/24 06:56:27;;;;;;;69.38;54.67;;;;;;;;;;10061722;28;20447;-73
2024/01/24 07:01:20;;;;;;;53.13;41.08;;;;;;;;;;10065160;28;20045;-73
2024/01/24 07:06:12;;;;;;;51.60;42.03;;;;;;;;;;10063512;28;20487;-74
2024/01/24 07:11:05;;;;;;;26.77;21.95;;;;;;;;;;10065552;28;20069;-73
2024/01/24 07:16:00;;;;;;;57.78;44.03;;;;;;;;;;10063745;28;20163;-73
2024/01/24 07:20:52;;;;;;;48.00;36.30;;;;;;;;;;10064979;28;20052;-74
2024/01/24 07:25:44;;;;;;;25.88;22.90;;;;;;;;;;10064756;28;20059;-73
2024/01/24 07:30:35;;;;;;;30.20;25.40;;;;;;;;;;10064726;28;20098;-73
2024/01/24 07:35:27;;;;;;;39.80;30.75;;;;;;;;;;10064705;28;20103;-72
2024/01/24 07:40:20;;;;;;;55.20;49.38;;;;;;;;;;10064772;28;20048;-74
2024/01/24 07:45:12;;;;;;;71.65;61.67;;;;;;;;;;10062593;28;20056;-74
2024/01/24 07:50:04;;;;;;;40.13;26.95;;;;;;;;;;10060999;28;20611;-74
2024/01/24 07:54:57;;;;;;;32.90;26.55;;;;;;;;;;10059578;28;20053;-74
2024/01/24 07:59:51;;;;;;;36.30;27.30;;;;;;;;;;10059906;28;20046;-74
2024/01/24 08:04:43;;;;;;;35.70;29.58;;;;;;;;;;10063783;28;20524;-73
2024/01/24 08:09:35;;;;;;;42.85;29.15;;;;;;;;;;10065083;28;20468;-73
2024/01/24 08:14:27;;;;;;;47.53;37.83;;;;;;;;;;10062305;28;20045;-73
2024/01/24 08:19:19;;;;;;;45.53;36.92;;;;;;;;;;10062551;28;20516;-72
2024/01/24 08:24:11;;;;;;;38.25;31.38;;;;;;;;;;10060610;28;20490;-73
2024/01/24 08:29:03;;;;;;;35.50;23.05;;;;;;;;;;10061151;28;20508;-73
2024/01/24 08:33:55;;;;;;;24.77;20.23;;;;;;;;;;10057924;28;20052;-72
2024/01/24 08:38:47;;;;;;;30.88;22.90;;;;;;;;;;10057162;28;20080;-75
2024/01/24 08:43:39;;;;;;;34.67;24.73;;;;;;;;;;10061476;28;20037;-75
2024/01/24 08:48:31;;;;;;;29.60;25.45;;;;;;;;;;10062389;28;20298;-72
2024/01/24 08:53:23;;;;;;;28.20;21.65;;;;;;;;;;10062252;28;20637;-75
2024/01/24 08:58:15;;;;;;;23.27;20.52;;;;;;;;;;10061848;28;20046;-75
2024/01/24 09:03:07;;;;;;;30.60;21.02;;;;;;;;;;10062294;28;20046;-73
2024/01/24 09:07:59;;;;;;;27.27;22.77;;;;;;;;;;10060903;28;20045;-73
2024/01/24 09:12:51;;;;;;;31.10;22.27;;;;;;;;;;10061140;28;20045;-73
2024/01/24 09:17:44;;;;;;;28.60;25.15;;;;;;;;;;10060820;28;20080;-73
2024/01/24 09:22:36;;;;;;;34.25;27.00;;;;;;;;;;10060380;28;20042;-73
2024/01/24 09:27:28;;;;;;;33.40;25.02;;;;;;;;;;10060651;28;20073;-73
2024/01/24 09:32:20;;;;;;;33.22;25.83;;;;;;;;;;10056485;28;20133;-73
2024/01/24 09:37:12;;;;;;;28.70;22.80;;;;;;;;;;10060022;28;20073;-73
2024/01/24 09:42:18;;;;;;;26.70;23.75;;;;;;;;;;10060162;28;20072;-73
2024/01/24 09:47:10;;;;;;;25.98;22.92;;;;;;;;;;10062416;28;20049;-73
2024/01/24 09:52:02;;;;;;;22.98;20.25;;;;;;;;;;10067697;28;20046;-75
2024/01/24 09:56:55;;;;;;;24.85;20.92;;;;;;;;;;10068624;28;20037;-75
2024/01/24 10:01:49;;;;;;;27.20;21.30;;;;;;;;;;10068025;28;20065;-73
2024/01/24 10:06:42;;;;;;;27.48;23.02;;;;;;;;;;10068474;28;20038;-73
2024/01/24 10:11:34;;;;;;;28.63;23.75;;;;;;;;;;10066450;28;20041;-73
2024/01/24 10:16:26;;;;;;;25.67;21.80;;;;;;;;;;10066253;28;20045;-73
2024/01/24 10:21:18;;;;;;;27.73;24.23;;;;;;;;;;10065566;28;20052;-73
2024/01/24 10:26:10;;;;;;;31.02;22.25;;;;;;;;;;10066573;28;20108;-73
2024/01/24 10:31:03;;;;;;;31.42;22.25;;;;;;;;;;10067195;28;20045;-73
2024/01/24 10:35:56;;;;;;;30.48;22.42;;;;;;;;;;10066448;28;20073;-73
2024/01/24 10:40:59;;;;;;;30.25;24.33;;;;;;;;;;10066378;28;20061;-73
2024/01/24 10:45:52;;;;;;;28.15;23.80;;;;;;;;;;10066358;28;20077;-73
2024/01/24 10:50:44;;;;;;;29.23;22.15;;;;;;;;;;10064398;28;20050;-73
2024/01/24 10:55:36;;;;;;;34.42;23.85;;;;;;;;;;10065445;28;20049;-73
2024/01/24 11:00:30;;;;;;;32.42;22.23;;;;;;;;;;10065260;28;20067;-73
2024/01/24 11:05:40;;;;;;;31.92;23.15;;;;;;;;;;10065765;28;20088;-73
2024/01/24 11:10:39;;;;;;;23.50;19.38;;;;;;;;;;10062448;28;20045;-73
2024/01/24 11:15:32;;;;;;;26.65;20.90;;;;;;;;;;10057323;28;20056;-73
2024/01/24 11:20:25;;;;;;;29.23;23.25;;;;;;;;;;10063891;28;20431;-75
2024/01/24 11:25:37;;;;;;;32.67;25.02;;;;;;;;;;10064980;28;20042;-74
2024/01/24 11:30:38;;;;;;;34.05;25.02;;;;;;;;;;10052940;28;20053;-74
2024/01/24 11:35:57;;;;;;;33.30;27.13;;;;;;;;;;10063397;28;20531;-74
2024/01/24 11:41:22;;;;;;;37.83;28.38;;;;;;;;;;10063202;28;20348;-74
2024/01/24 11:46:15;;;;;;;37.35;28.23;;;;;;;;;;10047632;28;20045;-74
2024/01/24 11:51:07;;;;;;;31.63;25.17;;;;;;;;;;10064674;28;20072;-74
2024/01/24 11:56:02;;;;;;;32.10;25.95;;;;;;;;;;10061726;28;20053;-74
2024/01/24 12:01:04;;;;;;;28.85;25.13;;;;;;;;;;10061489;28;20037;-74
2024/01/24 12:05:57;;;;;;;33.47;28.33;;;;;;;;;;10060654;28;20457;-74
2024/01/24 12:10:49;;;;;;;32.63;27.40;;;;;;;;;;10062652;28;20049;-74
2024/01/24 12:15:47;;;;;;;33.88;28.05;;;;;;;;;;10062348;28;20064;-74
2024/01/24 12:20:54;;;;;;;31.38;27.50;;;;;;;;;;10063619;28;20422;-74
2024/01/24 12:25:52;;;;;;;35.22;28.30;;;;;;;;;;10064425;28;20045;-74
2024/01/24 12:30:47;;;;;;;32.95;26.80;;;;;;;;;;10060758;28;20479;-74
2024/01/24 12:35:45;;;;;;;34.35;28.08;;;;;;;;;;10060374;28;20045;-74
2024/01/24 12:40:37;;;;;;;41.20;29.75;;;;;;;;;;10063106;28;20144;-74
2024/01/24 12:45:29;;;;;;;31.85;26.50;;;;;;;;;;10062049;28;20042;-74
2024/01/24 12:50:21;;;;;;;34.30;27.73;;;;;;;;;;10062078;28;20464;-74
2024/01/24 12:55:14;;;;;;;35.05;28.83;;;;;;;;;;10061505;28;20050;-74
2024/01/24 13:00:09;;;;;;;73.70;54.88;;;;;;;;;;10061235;28;20111;-74
2024/01/24 13:05:02;;;;;;;35.03;30.45;;;;;;;;;;10061775;28;20076;-74
2024/01/24 13:09:54;;;;;;;37.83;30.05;;;;;;;;;;10060081;28;20084;-75
2024/01/24 13:14:50;;;;;;;39.63;32.10;;;;;;;;;;10061100;28;20736;-74
2024/01/24 13:19:42;;;;;;;38.88;29.33;;;;;;;;;;10060998;28;20136;-74
2024/01/24 13:24:34;;;;;;;40.80;32.17;;;;;;;;;;10060787;28;20061;-74
2024/01/24 13:29:26;;;;;;;43.72;30.35;;;;;;;;;;10059033;28;20053;-73
2024/01/24 13:34:20;;;;;;;36.30;28.30;;;;;;;;;;10059457;28;20140;-73
2024/01/24 13:39:14;;;;;;;40.03;30.08;;;;;;;;;;10060398;28;20049;-74
2024/01/24 13:44:06;;;;;;;45.03;34.13;;;;;;;;;;10059741;28;20038;-74
2024/01/24 13:48:58;;;;;;;41.60;32.05;;;;;;;;;;10059070;28;20080;-77
2024/01/24 13:53:50;;;;;;;43.90;33.33;;;;;;;;;;10059556;28;20045;-78
2024/01/24 13:58:43;;;;;;;43.90;32.03;;;;;;;;;;10052469;28;20778;-74
2024/01/24 14:03:35;;;;;;;40.80;31.35;;;;;;;;;;10051386;28;20063;-73
2024/01/24 14:08:31;;;;;;;38.40;31.90;;;;;;;;;;10054661;28;20117;-74
2024/01/24 14:13:23;;;;;;;54.63;35.45;;;;;;;;;;10056893;28;20448;-73
2024/01/24 14:18:15;;;;;;;48.28;38.03;;;;;;;;;;10054311;28;20073;-75
2024/01/24 14:23:07;;;;;;;44.22;32.67;;;;;;;;;;10051408;28;20058;-73
2024/01/24 14:27:59;;;;;;;46.63;32.88;;;;;;;;;;10049743;28;20045;-72
2024/01/24 14:32:51;;;;;;;40.50;31.45;;;;;;;;;;10058526;28;20087;-73
2024/01/24 14:37:43;;;;;;;48.40;33.80;;;;;;;;;;10052845;28;20385;-72
2024/01/24 14:42:36;;;;;;;40.85;32.72;;;;;;;;;;10056390;28;20534;-76
2024/01/24 14:47:28;;;;;;;43.95;33.58;;;;;;;;;;10062038;28;20895;-78
2024/01/24 14:52:23;;;;;;;43.70;33.95;;;;;;;;;;10063014;28;20056;-78
2024/01/24 14:57:14;;;;;;;39.53;32.65;;;;;;;;;;10061873;28;21287;-78
2024/01/24 15:02:06;;;;;;;39.65;31.33;;;;;;;;;;10066414;28;20045;-78
2024/01/24 15:06:59;;;;;;;41.65;32.53;;;;;;;;;;10063339;28;20076;-78
2024/01/24 15:11:51;;;;;;;48.65;35.15;;;;;;;;;;10065242;28;20049;-78
2024/01/24 15:16:43;;;;;;;58.85;38.83;;;;;;;;;;10065370;28;21089;-81
2024/01/24 15:21:35;;;;;;;41.72;33.95;;;;;;;;;;10065171;28;20136;-80
2024/01/24 15:26:29;;;;;;;53.10;35.50;;;;;;;;;;10065142;28;20037;-79
2024/01/24 15:31:21;;;;;;;63.28;43.42;;;;;;;;;;10064563;28;20049;-79
2024/01/24 15:36:13;;;;;;;65.18;46.63;;;;;;;;;;10063604;28;20065;-77
2024/01/24 15:41:05;;;;;;;108.90;82.80;;;;;;;;;;10064257;28;20072;-79
2024/01/24 15:45:57;;;;;;;60.60;41.10;;;;;;;;;;10059443;28;20448;-77
2024/01/24 15:50:49;;;;;;;51.28;36.83;;;;;;;;;;10064128;28;20037;-77
2024/01/24 15:55:41;;;;;;;49.05;37.65;;;;;;;;;;10062135;28;20144;-77
2024/01/24 16:00:33;;;;;;;47.55;40.05;;;;;;;;;;10061631;28;20114;-77
2024/01/24 16:05:46;;;;;;;44.42;37.13;;;;;;;;;;10062683;28;20437;-77
2024/01/24 16:10:38;;;;;;;40.92;29.05;;;;;;;;;;10059863;28;20038;-78
2024/01/24 16:15:30;;;;;;;44.72;29.17;;;;;;;;;;10059512;28;20080;-77
2024/01/24 16:20:22;;;;;;;35.60;26.45;;;;;;;;;;10061107;28;20103;-78
2024/01/24 16:25:14;;;;;;;42.42;34.45;;;;;;;;;;10050349;28;20048;-76
2024/01/24 16:30:07;;;;;;;39.80;32.90;;;;;;;;;;10044703;28;20144;-74
2024/01/24 16:35:00;;;;;;;46.53;36.20;;;;;;;;;;10059624;28;20052;-76
2024/01/24 16:39:52;;;;;;;35.42;26.52;;;;;;;;;;10059071;28;20049;-76
2024/01/24 16:44:44;;;;;;;63.50;50.33;;;;;;;;;;10050539;28;20500;-75
2024/01/24 16:49:36;;;;;;;44.55;34.67;;;;;;;;;;10049609;28;20084;-77
2024/01/24 16:54:28;;;;;;;36.10;23.60;;;;;;;;;;10057303;28;20507;-77
2024/01/24 16:59:20;;;;;;;37.58;28.67;;;;;;;;;;10047370;28;20099;-77
2024/01/24 17:04:12;;;;;;;31.60;23.70;;;;;;;;;;10057313;28;20100;-77
2024/01/24 17:09:04;;;;;;;25.75;19.95;;;;;;;;;;10041448;28;20096;-77
2024/01/24 17:13:57;;;;;;;42.67;27.67;;;;;;;;;;10044159;28;20045;-77
2024/01/24 17:18:49;;;;;;;43.33;29.88;;;;;;;;;;10056131;28;20108;-76
2024/01/24 17:23:41;;;;;;;27.67;20.42;;;;;;;;;;10039701;28;20049;-75
2024/01/24 17:28:33;;;;;;;29.77;19.95;;;;;;;;;;10052464;28;20140;-76
2024/01/24 17:33:25;;;;;;;43.53;30.85;;;;;;;;;;10059436;28;20049;-76
2024/01/24 17:38:17;;;;;;;63.72;52.20;;;;;;;;;;10057738;28;20053;-76
2024/01/24 17:43:09;;;;;;;47.42;31.60;;;;;;;;;;10053096;28;20041;-76
2024/01/24 17:48:02;;;;;;;58.88;45.60;;;;;;;;;;10059195;28;20053;-76
2024/01/24 17:52:54;;;;;;;35.33;23.70;;;;;;;;;;10060505;28;20132;-76
2024/01/24 17:57:45;;;;;;;22.23;19.35;;;;;;;;;;10053081;28;20054;-77
2024/01/24 18:02:37;;;;;;;26.70;14.98;;;;;;;;;;10058169;28;20088;-74
2024/01/24 18:07:30;;;;;;;21.85;15.32;;;;;;;;;;10058651;28;20468;-75
2024/01/24 18:12:22;;;;;;;33.15;23.50;;;;;;;;;;10065408;28;20033;-76
2024/01/24 18:17:14;;;;;;;27.13;20.45;;;;;;;;;;10066021;28;21622;-76
2024/01/24 18:22:07;;;;;;;41.45;29.48;;;;;;;;;;10054808;28;20469;-76
2024/01/24 18:27:00;;;;;;;29.88;23.15;;;;;;;;;;10064593;28;20041;-75
2024/01/24 18:31:51;;;;;;;33.03;24.88;;;;;;;;;;10066606;28;20526;-76
2024/01/24 18:36:43;;;;;;;34.58;25.30;;;;;;;;;;10065208;28;20048;-75
2024/01/24 18:41:35;;;;;;;30.77;22.05;;;;;;;;;;10070503;28;20048;-75
2024/01/24 18:46:28;;;;;;;27.92;22.05;;;;;;;;;;10104088;28;20112;-75
2024/01/24 18:51:20;;;;;;;25.15;19.45;;;;;;;;;;10103475;28;20047;-75
2024/01/24 18:56:12;;;;;;;29.40;21.38;;;;;;;;;;10103908;28;20111;-75
2024/01/24 19:01:05;;;;;;;29.35;23.00;;;;;;;;;;10101528;28;20545;-76
2024/01/24 19:05:58;;;;;;;27.48;19.92;;;;;;;;;;10092355;28;20054;-77
2024/01/24 19:10:50;;;;;;;26.90;21.48;;;;;;;;;;10100761;28;20079;-76
2024/01/24 19:15:42;;;;;;;24.05;17.92;;;;;;;;;;10100789;28;20379;-76
2024/01/24 19:20:35;;;;;;;22.58;17.67;;;;;;;;;;10094833;28;21549;-78
2024/01/24 19:25:27;;;;;;;16.73;13.20;;;;;;;;;;10095794;28;20083;-77
2024/01/24 19:30:19;;;;;;;19.98;14.75;;;;;;;;;;10098195;28;20413;-77
2024/01/24 19:35:11;;;;;;;18.52;13.35;;;;;;;;;;10093799;28;20048;-78
2024/01/24 19:40:06;;;;;;;22.50;12.32;;;;;;;;;;10092807;28;20168;-77
2024/01/24 19:44:58;;;;;;;19.38;15.32;;;;;;;;;;10086838;28;20448;-77
2024/01/24 19:49:50;;;;;;;22.67;17.25;;;;;;;;;;10091650;28;20120;-76
2024/01/24 19:54:42;;;;;;;15.95;12.27;;;;;;;;;;10099756;28;20051;-78
2024/01/24 19:59:34;;;;;;;19.63;13.10;;;;;;;;;;10092860;28;20045;-77
2024/01/24 20:04:26;;;;;;;18.52;14.55;;;;;;;;;;10102285;28;20041;-77
2024/01/24 20:09:18;;;;;;;19.08;14.52;;;;;;;;;;10095827;28;20056;-76
2024/01/24 20:14:10;;;;;;;22.80;15.48;;;;;;;;;;10099925;28;20045;-76
2024/01/24 20:19:02;;;;;;;28.17;15.32;;;;;;;;;;10096681;28;20047;-75
2024/01/24 20:23:54;;;;;;;18.83;14.65;;;;;;;;;;10096592;28;20392;-76
2024/01/24 20:28:46;;;;;;;20.90;14.95;;;;;;;;;;10092248;28;20358;-76
2024/01/24 20:33:41;;;;;;;20.55;15.15;;;;;;;;;;10096128;28;20468;-77
2024/01/24 20:38:33;;;;;;;24.17;16.60;;;;;;;;;;10094515;28;20065;-75
2024/01/24 20:43:25;;;;;;;26.45;17.60;;;;;;;;;;10099595;28;20047;-78
2024/01/24 20:48:17;;;;;;;23.58;16.52;;;;;;;;;;10064091;28;20087;-78
2024/01/24 20:53:09;;;;;;;23.35;14.95;;;;;;;;;;10093413;28;20049;-78
2024/01/24 20:58:01;;;;;;;22.92;17.55;;;;;;;;;;10097707;28;20045;-78
2024/01/24 21:02:53;;;;;;;21.63;15.32;;;;;;;;;;10084940;28;20076;-78
2024/01/24 21:07:46;;;;;;;27.13;15.98;;;;;;;;;;10104131;28;20037;-78
2024/01/24 21:12:39;;;;;;;20.13;14.65;;;;;;;;;;10076501;28;20045;-77
2024/01/24 21:17:32;;;;;;;24.33;15.85;;;;;;;;;;10094737;28;20533;-77
2024/01/24 21:22:24;;;;;;;24.02;18.73;;;;;;;;;;10086151;28;20116;-77
2024/01/24 21:27:16;;;;;;;27.08;17.63;;;;;;;;;;10097414;28;20423;-77
2024/01/24 21:32:08;;;;;;;20.25;15.60;;;;;;;;;;10093053;28;20049;-77
2024/01/24 21:37:00;;;;;;;23.13;14.73;;;;;;;;;;10095925;28;20495;-77
2024/01/24 21:41:52;;;;;;;19.13;13.60;;;;;;;;;;10086359;28;20483;-77
2024/01/24 21:46:44;;;;;;;15.15;13.50;;;;;;;;;;10089704;28;20041;-77
2024/01/24 21:51:36;;;;;;;21.90;14.68;;;;;;;;;;10075841;28;20056;-77
2024/01/24 21:56:28;;;;;;;15.02;13.02;;;;;;;;;;10067396;28;20057;-78
2024/01/24 22:01:21;;;;;;;15.35;11.88;;;;;;;;;;10066438;28;20049;-78
2024/01/24 22:06:13;;;;;;;22.27;14.15;;;;;;;;;;10080120;28;20041;-77
2024/01/24 22:11:06;;;;;;;19.15;12.40;;;;;;;;;;10062225;28;20057;-77
2024/01/24 22:15:58;;;;;;;19.20;12.38;;;;;;;;;;10063375;28;20384;-77
2024/01/24 22:20:51;;;;;;;16.17;12.80;;;;;;;;;;10063557;28;20053;-77
2024/01/24 22:25:43;;;;;;;17.30;12.95;;;;;;;;;;10082608;28;20045;-77
2024/01/24 22:30:35;;;;;;;18.33;11.63;;;;;;;;;;10062691;28;20057;-78
2024/01/24 22:35:27;;;;;;;17.40;12.02;;;;;;;;;;10062762;28;20557;-77
2024/01/24 22:40:19;;;;;;;15.23;13.18;;;;;;;;;;10063149;28;20042;-77
2024/01/24 22:45:13;;;;;;;17.98;11.73;;;;;;;;;;10083068;28;20472;-77
2024/01/24 22:50:07;;;;;;;14.95;12.25;;;;;;;;;;10067551;28;20132;-77
2024/01/24 22:54:59;;;;;;;16.98;12.63;;;;;;;;;;10064845;28;20419;-77
2024/01/24 22:59:51;;;;;;;15.23;12.00;;;;;;;;;;10069925;28;20049;-77
2024/01/24 23:04:43;;;;;;;17.45;12.48;;;;;;;;;;10069153;28;20058;-77
2024/01/24 23:09:35;;;;;;;23.23;13.73;;;;;;;;;;10069675;28;20421;-77
2024/01/24 23:14:27;;;;;;;17.05;12.57;;;;;;;;;;10079996;28;20140;-77
2024/01/24 23:19:19;;;;;;;18.88;11.55;;;;;;;;;;10096233;28;20041;-78
2024/01/24 23:24:11;;;;;;;19.23;13.00;;;;;;;;;;10069377;28;20388;-78
2024/01/24 23:29:03;;;;;;;17.02;14.32;;;;;;;;;;10070692;28;20045;-78
2024/01/24 23:33:55;;;;;;;22.17;13.60;;;;;;;;;;10068853;28;20102;-78
2024/01/24 23:38:48;;;;;;;16.95;11.15;;;;;;;;;;10074015;28;20046;-78
2024/01/24 23:43:41;;;;;;;16.65;12.32;;;;;;;;;;10100474;28;20049;-77
2024/01/24 23:48:33;;;;;;;20.15;14.05;;;;;;;;;;10099818;28;20426;-77
2024/01/24 23:53:25;;;;;;;23.85;14.05;;;;;;;;;;10100129;28;20049;-77
2024/01/24 23:58:17;;;;;;;18.83;13.90;;;;;;;;;;10096133;28;20044;-78
